map of ZAL home
ZAL - Airport
Location
City:  Valdivia, Los Ríos, Chile
Name:Pichoy Airport
ICAO:SCVD
IATA:ZAL

Details
Type:Airport (Aerodrome, Airfield)
Use:Public/Civil
Latitude:39°38'58"S (-39.649443)
Longitude:73°05'11"W (-73.086388)
Elevation:59 ft (18 m)
Variation:7.35°E (WMM2015 magnetic declination)
-0.12° annual change
Runways:1
Longest:6890 × 148 ft (2100 × 45 m), paved

Time
Time Zone:UTC-4 (DST-3)
Local Time:

Weather
METAR:SCVD 171600Z 01009KT 9999 RA BKN046 BKN052 10/09 Q1010
TAF:SCVD 171015Z 1712/1724 03007KT 9999 SCT020 TN08/1712Z TX14/1718Z
BECMG 1712/1714 31005KT BKN030 PROB40
TEMPO 1718/1722 VRB03KT 7000 TS/-SHRA SCT020TCU BKN030

Related Locations
Nearby:
Farthest:WUA: 12436 mi / 20014 km
Wuhai [Wuhai Regional], 15, CN

Find:

   beyond  
but within

Other Information
Maps:
NOTAMs:
Links:
Sources:

  
  • flag of Chile
  • flag of Los Ríos
  

Sectional Chart

Flight Planning
at skyvector.com

Satellite Image

Google Maps Satellite view

 

Copyright © 2004-2018 Karl L. Swartz. All rights reserved.
The Great Circle Mapper name and logo are trademarks of the Great Circle Mapper.
All other trademarks mentioned herein belong to their respective owners.
Please see credits for attibutions and further copyright information.

  Follow gcmap on Facebook Follow gcmap on Twitter Follow gcmap on Google+ GCmap on LinkedIn

hCard Microformat

Geo Microformat